sensor_id;sensor_type;location;lat;lon;timestamp;pressure;altitude;pressure_sealevel;temperature;humidity
59939;BME280;45801;51.810;19.444;2023-07-08T00:01:19;99746.90;;;16.77;58.92
59939;BME280;45801;51.810;19.444;2023-07-08T00:03:47;99745.77;;;16.73;58.70
59939;BME280;45801;51.810;19.444;2023-07-08T00:06:26;99740.73;;;16.70;58.59
59939;BME280;45801;51.810;19.444;2023-07-08T00:08:53;99739.73;;;16.67;58.78
59939;BME280;45801;51.810;19.444;2023-07-08T00:11:19;99735.42;;;16.64;58.84
59939;BME280;45801;51.810;19.444;2023-07-08T00:13:46;99739.23;;;16.61;59.17
59939;BME280;45801;51.810;19.444;2023-07-08T00:16:15;99736.00;;;16.59;59.18
59939;BME280;45801;51.810;19.444;2023-07-08T00:18:43;99734.00;;;16.58;59.53
59939;BME280;45801;51.810;19.444;2023-07-08T00:21:11;99734.48;;;16.55;59.62
59939;BME280;45801;51.810;19.444;2023-07-08T00:23:48;99738.84;;;16.54;59.66
59939;BME280;45801;51.810;19.444;2023-07-08T00:26:23;99739.48;;;16.51;59.86
59939;BME280;45801;51.810;19.444;2023-07-08T00:28:51;99742.25;;;16.49;59.77
59939;BME280;45801;51.810;19.444;2023-07-08T00:31:18;99743.05;;;16.46;59.36
59939;BME280;45801;51.810;19.444;2023-07-08T00:33:50;99742.79;;;16.42;59.25
59939;BME280;45801;51.810;19.444;2023-07-08T00:36:17;99741.45;;;16.39;59.51
59939;BME280;45801;51.810;19.444;2023-07-08T00:38:44;99741.20;;;16.36;59.58
59939;BME280;45801;51.810;19.444;2023-07-08T00:41:38;99740.44;;;16.34;60.02
59939;BME280;45801;51.810;19.444;2023-07-08T00:44:10;99738.39;;;16.31;60.45
59939;BME280;45801;51.810;19.444;2023-07-08T00:46:46;99737.41;;;16.27;61.19
59939;BME280;45801;51.810;19.444;2023-07-08T00:49:28;99733.79;;;16.24;61.02
59939;BME280;45801;51.810;19.444;2023-07-08T00:52:22;99732.48;;;16.22;60.88
59939;BME280;45801;51.810;19.444;2023-07-08T00:54:51;99731.50;;;16.18;60.52
59939;BME280;45801;51.810;19.444;2023-07-08T00:57:19;99730.91;;;16.17;60.58
59939;BME280;45801;51.810;19.444;2023-07-08T00:59:55;99733.49;;;16.14;61.14
59939;BME280;45801;51.810;19.444;2023-07-08T01:02:24;99732.89;;;16.12;61.40
59939;BME280;45801;51.810;19.444;2023-07-08T01:04:56;99735.14;;;16.10;61.35
59939;BME280;45801;51.810;19.444;2023-07-08T01:07:25;99737.40;;;16.08;62.10
59939;BME280;45801;51.810;19.444;2023-07-08T01:09:58;99737.38;;;16.07;62.30
59939;BME280;45801;51.810;19.444;2023-07-08T01:12:32;99741.60;;;16.07;62.51
59939;BME280;45801;51.810;19.444;2023-07-08T01:15:02;99741.94;;;16.06;62.75
59939;BME280;45801;51.810;19.444;2023-07-08T01:17:29;99733.58;;;16.05;63.01
59939;BME280;45801;51.810;19.444;2023-07-08T01:20:00;99729.83;;;16.03;62.97
59939;BME280;45801;51.810;19.444;2023-07-08T01:22:26;99721.31;;;16.08;62.36
59939;BME280;45801;51.810;19.444;2023-07-08T01:24:58;99721.90;;;16.10;61.97
59939;BME280;45801;51.810;19.444;2023-07-08T01:27:31;99723.09;;;16.08;62.23
59939;BME280;45801;51.810;19.444;2023-07-08T01:30:00;99722.10;;;16.05;62.71
59939;BME280;45801;51.810;19.444;2023-07-08T01:32:28;99722.40;;;16.03;63.27
59939;BME280;45801;51.810;19.444;2023-07-08T01:34:59;99728.04;;;16.02;62.95
59939;BME280;45801;51.810;19.444;2023-07-08T01:37:51;99724.85;;;16.02;63.24
59939;BME280;45801;51.810;19.444;2023-07-08T01:42:45;99720.17;;;16.05;62.94
59939;BME280;45801;51.810;19.444;2023-07-08T01:45:13;99717.32;;;16.04;62.80
59939;BME280;45801;51.810;19.444;2023-07-08T01:47:43;99716.91;;;16.03;62.45
59939;BME280;45801;51.810;19.444;2023-07-08T01:50:11;99719.15;;;16.01;62.33
59939;BME280;45801;51.810;19.444;2023-07-08T01:52:38;99715.95;;;16.00;62.10
59939;BME280;45801;51.810;19.444;2023-07-08T01:55:05;99713.97;;;15.99;62.32
59939;BME280;45801;51.810;19.444;2023-07-08T01:57:32;99714.67;;;15.98;62.12
59939;BME280;45801;51.810;19.444;2023-07-08T01:59:59;99712.21;;;15.99;62.37
59939;BME280;45801;51.810;19.444;2023-07-08T02:02:25;99715.16;;;15.98;62.66
59939;BME280;45801;51.810;19.444;2023-07-08T02:04:52;99716.84;;;15.94;62.53
59939;BME280;45801;51.810;19.444;2023-07-08T02:07:18;99716.95;;;15.92;62.64
59939;BME280;45801;51.810;19.444;2023-07-08T02:09:44;99714.23;;;15.89;62.52
59939;BME280;45801;51.810;19.444;2023-07-08T02:12:11;99716.45;;;15.86;62.34
59939;BME280;45801;51.810;19.444;2023-07-08T02:14:38;99714.92;;;15.83;62.74
59939;BME280;45801;51.810;19.444;2023-07-08T02:17:06;99716.24;;;15.80;62.85
59939;BME280;45801;51.810;19.444;2023-07-08T02:19:32;99717.39;;;15.78;62.83
59939;BME280;45801;51.810;19.444;2023-07-08T02:21:59;99718.95;;;15.77;62.33
59939;BME280;45801;51.810;19.444;2023-07-08T02:24:26;99715.88;;;15.75;62.40
59939;BME280;45801;51.810;19.444;2023-07-08T02:26:53;99715.61;;;15.72;62.85
59939;BME280;45801;51.810;19.444;2023-07-08T02:29:19;99715.19;;;15.69;63.27
59939;BME280;45801;51.810;19.444;2023-07-08T02:31:46;99707.52;;;15.66;63.65
59939;BME280;45801;51.810;19.444;2023-07-08T02:34:13;99712.53;;;15.63;64.04
59939;BME280;45801;51.810;19.444;2023-07-08T02:36:40;99713.14;;;15.61;64.21
59939;BME280;45801;51.810;19.444;2023-07-08T02:39:06;99710.09;;;15.59;64.11
59939;BME280;45801;51.810;19.444;2023-07-08T02:41:33;99708.48;;;15.58;63.97
59939;BME280;45801;51.810;19.444;2023-07-08T02:43:59;99713.41;;;15.58;64.01
59939;BME280;45801;51.810;19.444;2023-07-08T02:46:26;99716.10;;;15.59;63.55
59939;BME280;45801;51.810;19.444;2023-07-08T02:48:53;99709.98;;;15.61;63.36
59939;BME280;45801;51.810;19.444;2023-07-08T02:51:19;99707.20;;;15.62;63.21
59939;BME280;45801;51.810;19.444;2023-07-08T02:53:48;99706.55;;;15.64;63.14
59939;BME280;45801;51.810;19.444;2023-07-08T02:56:15;99707.64;;;15.65;63.15
59939;BME280;45801;51.810;19.444;2023-07-08T02:58:42;99710.64;;;15.65;62.83
59939;BME280;45801;51.810;19.444;2023-07-08T03:01:09;99711.00;;;15.65;62.75
59939;BME280;45801;51.810;19.444;2023-07-08T03:03:35;99712.05;;;15.65;62.91
59939;BME280;45801;51.810;19.444;2023-07-08T03:06:04;99712.95;;;15.66;62.88
59939;BME280;45801;51.810;19.444;2023-07-08T03:08:31;99713.82;;;15.65;63.23
59939;BME280;45801;51.810;19.444;2023-07-08T03:11:01;99714.33;;;15.64;63.01
59939;BME280;45801;51.810;19.444;2023-07-08T03:13:28;99715.71;;;15.63;63.04
59939;BME280;45801;51.810;19.444;2023-07-08T03:15:56;99718.67;;;15.62;63.15
59939;BME280;45801;51.810;19.444;2023-07-08T03:18:23;99720.42;;;15.62;63.13
59939;BME280;45801;51.810;19.444;2023-07-08T03:20:50;99720.06;;;15.61;63.31
59939;BME280;45801;51.810;19.444;2023-07-08T03:23:17;99719.16;;;15.61;63.62
59939;BME280;45801;51.810;19.444;2023-07-08T03:25:43;99721.83;;;15.62;63.79
59939;BME280;45801;51.810;19.444;2023-07-08T03:28:10;99724.88;;;15.63;63.76
59939;BME280;45801;51.810;19.444;2023-07-08T03:30:42;99720.65;;;15.63;63.92
59939;BME280;45801;51.810;19.444;2023-07-08T03:33:09;99726.36;;;15.65;63.67
59939;BME280;45801;51.810;19.444;2023-07-08T03:35:37;99722.14;;;15.65;64.01
59939;BME280;45801;51.810;19.444;2023-07-08T03:38:04;99721.83;;;15.67;63.87
59939;BME280;45801;51.810;19.444;2023-07-08T03:40:31;99720.44;;;15.68;63.71
59939;BME280;45801;51.810;19.444;2023-07-08T03:42:58;99722.09;;;15.70;63.75
59939;BME280;45801;51.810;19.444;2023-07-08T03:45:25;99723.57;;;15.72;63.87
59939;BME280;45801;51.810;19.444;2023-07-08T03:47:53;99724.48;;;15.73;63.96
59939;BME280;45801;51.810;19.444;2023-07-08T03:50:21;99725.25;;;15.75;63.98
59939;BME280;45801;51.810;19.444;2023-07-08T03:52:50;99723.37;;;15.77;64.14
59939;BME280;45801;51.810;19.444;2023-07-08T03:55:20;99722.72;;;15.79;64.42
59939;BME280;45801;51.810;19.444;2023-07-08T03:57:47;99727.41;;;15.81;64.38
59939;BME280;45801;51.810;19.444;2023-07-08T04:00:14;99726.77;;;15.84;64.29
59939;BME280;45801;51.810;19.444;2023-07-08T04:02:42;99725.27;;;15.87;64.27
59939;BME280;45801;51.810;19.444;2023-07-08T04:05:20;99724.65;;;15.89;64.06
59939;BME280;45801;51.810;19.444;2023-07-08T04:07:47;99725.42;;;15.92;64.42
59939;BME280;45801;51.810;19.444;2023-07-08T04:10:15;99727.11;;;15.95;64.89
59939;BME280;45801;51.810;19.444;2023-07-08T04:12:43;99727.90;;;15.98;65.14
59939;BME280;45801;51.810;19.444;2023-07-08T04:15:11;99727.48;;;16.02;64.97
59939;BME280;45801;51.810;19.444;2023-07-08T04:17:43;99726.90;;;16.05;65.19
59939;BME280;45801;51.810;19.444;2023-07-08T04:20:14;99728.45;;;16.10;65.48
59939;BME280;45801;51.810;19.444;2023-07-08T04:22:41;99728.56;;;16.15;65.05
59939;BME280;45801;51.810;19.444;2023-07-08T04:25:07;99725.20;;;16.20;65.02
59939;BME280;45801;51.810;19.444;2023-07-08T04:27:34;99725.70;;;16.26;65.21
59939;BME280;45801;51.810;19.444;2023-07-08T04:30:00;99725.69;;;16.32;65.50
59939;BME280;45801;51.810;19.444;2023-07-08T04:32:27;99725.31;;;16.37;65.19
59939;BME280;45801;51.810;19.444;2023-07-08T04:34:54;99727.96;;;16.43;65.62
59939;BME280;45801;51.810;19.444;2023-07-08T04:37:20;99724.38;;;16.49;66.11
59939;BME280;45801;51.810;19.444;2023-07-08T04:39:47;99726.46;;;16.54;65.69
59939;BME280;45801;51.810;19.444;2023-07-08T04:42:14;99728.90;;;16.58;65.92
59939;BME280;45801;51.810;19.444;2023-07-08T04:44:43;99729.23;;;16.64;65.43
59939;BME280;45801;51.810;19.444;2023-07-08T04:47:10;99726.59;;;16.71;65.09
59939;BME280;45801;51.810;19.444;2023-07-08T04:49:38;99729.76;;;16.77;65.32
59939;BME280;45801;51.810;19.444;2023-07-08T04:52:09;99728.02;;;16.85;65.15
59939;BME280;45801;51.810;19.444;2023-07-08T04:54:36;99729.13;;;16.93;64.98
59939;BME280;45801;51.810;19.444;2023-07-08T04:57:03;99728.09;;;17.01;64.58
59939;BME280;45801;51.810;19.444;2023-07-08T04:59:29;99727.06;;;17.09;64.57
59939;BME280;45801;51.810;19.444;2023-07-08T05:02:00;99723.92;;;17.18;64.92
59939;BME280;45801;51.810;19.444;2023-07-08T05:04:27;99726.61;;;17.27;64.73
59939;BME280;45801;51.810;19.444;2023-07-08T05:06:54;99726.63;;;17.35;64.54
59939;BME280;45801;51.810;19.444;2023-07-08T05:09:21;99727.19;;;17.43;64.65
59939;BME280;45801;51.810;19.444;2023-07-08T05:11:49;99723.13;;;17.52;64.51
59939;BME280;45801;51.810;19.444;2023-07-08T05:14:16;99724.00;;;17.60;64.30
59939;BME280;45801;51.810;19.444;2023-07-08T05:16:42;99717.48;;;17.69;64.13
59939;BME280;45801;51.810;19.444;2023-07-08T05:19:09;99716.77;;;17.77;63.82
59939;BME280;45801;51.810;19.444;2023-07-08T05:21:36;99712.91;;;17.87;63.44
59939;BME280;45801;51.810;19.444;2023-07-08T05:24:05;99710.30;;;17.95;63.07
59939;BME280;45801;51.810;19.444;2023-07-08T05:26:32;99704.65;;;18.05;62.69
59939;BME280;45801;51.810;19.444;2023-07-08T05:28:59;99702.89;;;18.14;62.30
59939;BME280;45801;51.810;19.444;2023-07-08T05:31:27;99697.93;;;18.24;61.72
59939;BME280;45801;51.810;19.444;2023-07-08T05:33:54;99698.81;;;18.32;60.24
59939;BME280;45801;51.810;19.444;2023-07-08T05:36:20;99701.31;;;18.42;60.35
59939;BME280;45801;51.810;19.444;2023-07-08T05:38:48;99699.52;;;18.50;59.46
59939;BME280;45801;51.810;19.444;2023-07-08T05:41:14;99701.13;;;18.61;59.42
59939;BME280;45801;51.810;19.444;2023-07-08T05:43:41;99700.36;;;18.68;58.81
59939;BME280;45801;51.810;19.444;2023-07-08T05:46:07;99697.66;;;18.76;58.83
59939;BME280;45801;51.810;19.444;2023-07-08T05:48:34;99693.55;;;18.83;58.84
59939;BME280;45801;51.810;19.444;2023-07-08T05:51:00;99692.11;;;18.91;57.26
59939;BME280;45801;51.810;19.444;2023-07-08T05:53:27;99689.58;;;18.99;57.10
59939;BME280;45801;51.810;19.444;2023-07-08T05:55:53;99688.31;;;19.08;56.27
59939;BME280;45801;51.810;19.444;2023-07-08T05:58:20;99682.20;;;19.15;55.74
59939;BME280;45801;51.810;19.444;2023-07-08T06:00:46;99679.49;;;19.24;55.00
59939;BME280;45801;51.810;19.444;2023-07-08T06:03:13;99681.58;;;19.32;54.88
59939;BME280;45801;51.810;19.444;2023-07-08T06:05:39;99679.58;;;19.40;54.35
59939;BME280;45801;51.810;19.444;2023-07-08T06:08:06;99681.14;;;19.50;53.64
59939;BME280;45801;51.810;19.444;2023-07-08T06:10:34;99678.95;;;19.59;53.17
59939;BME280;45801;51.810;19.444;2023-07-08T06:13:01;99674.45;;;19.68;53.33
59939;BME280;45801;51.810;19.444;2023-07-08T06:15:27;99673.18;;;19.77;52.84
59939;BME280;45801;51.810;19.444;2023-07-08T06:17:54;99676.15;;;19.86;52.75
59939;BME280;45801;51.810;19.444;2023-07-08T06:20:21;99678.02;;;19.94;52.93
59939;BME280;45801;51.810;19.444;2023-07-08T06:22:47;99679.37;;;20.02;52.47
59939;BME280;45801;51.810;19.444;2023-07-08T06:25:14;99678.76;;;20.10;52.34
59939;BME280;45801;51.810;19.444;2023-07-08T06:27:40;99678.14;;;20.18;51.64
59939;BME280;45801;51.810;19.444;2023-07-08T06:30:08;99677.52;;;20.26;51.16
59939;BME280;45801;51.810;19.444;2023-07-08T06:32:34;99678.68;;;20.34;51.84
59939;BME280;45801;51.810;19.444;2023-07-08T06:35:01;99680.02;;;20.42;51.50
59939;BME280;45801;51.810;19.444;2023-07-08T06:37:27;99681.14;;;20.49;50.23
59939;BME280;45801;51.810;19.444;2023-07-08T06:39:54;99680.33;;;20.56;49.40
59939;BME280;45801;51.810;19.444;2023-07-08T06:42:20;99678.80;;;20.63;47.60
59939;BME280;45801;51.810;19.444;2023-07-08T06:44:47;99680.35;;;20.73;48.41
59939;BME280;45801;51.810;19.444;2023-07-08T06:47:21;99680.25;;;20.81;49.17
59939;BME280;45801;51.810;19.444;2023-07-08T06:49:48;99679.25;;;20.88;48.74
59939;BME280;45801;51.810;19.444;2023-07-08T06:52:14;99682.86;;;20.95;47.86
59939;BME280;45801;51.810;19.444;2023-07-08T06:54:41;99685.59;;;21.04;47.46
59939;BME280;45801;51.810;19.444;2023-07-08T06:57:07;99685.67;;;21.12;46.76
59939;BME280;45801;51.810;19.444;2023-07-08T06:59:34;99687.33;;;21.19;46.12
59939;BME280;45801;51.810;19.444;2023-07-08T07:02:01;99685.95;;;21.28;44.05
59939;BME280;45801;51.810;19.444;2023-07-08T07:04:28;99682.29;;;21.37;44.29
59939;BME280;45801;51.810;19.444;2023-07-08T07:06:55;99683.59;;;21.45;44.62
59939;BME280;45801;51.810;19.444;2023-07-08T07:09:21;99679.20;;;21.52;45.56
59939;BME280;45801;51.810;19.444;2023-07-08T07:11:47;99679.08;;;21.60;45.13
59939;BME280;45801;51.810;19.444;2023-07-08T07:14:14;99673.97;;;21.68;44.01
59939;BME280;45801;51.810;19.444;2023-07-08T07:16:40;99675.96;;;21.77;42.84
59939;BME280;45801;51.810;19.444;2023-07-08T07:19:08;99681.35;;;21.85;42.82
59939;BME280;45801;51.810;19.444;2023-07-08T07:21:35;99678.89;;;21.93;42.82
59939;BME280;45801;51.810;19.444;2023-07-08T07:24:01;99678.92;;;22.00;43.59
59939;BME280;45801;51.810;19.444;2023-07-08T07:26:28;99675.73;;;22.08;43.55
59939;BME280;45801;51.810;19.444;2023-07-08T07:28:54;99678.43;;;22.15;42.89
59939;BME280;45801;51.810;19.444;2023-07-08T07:31:21;99678.83;;;22.21;43.35
59939;BME280;45801;51.810;19.444;2023-07-08T07:33:48;99674.73;;;22.28;43.46
59939;BME280;45801;51.810;19.444;2023-07-08T07:36:14;99674.25;;;22.34;43.04
59939;BME280;45801;51.810;19.444;2023-07-08T07:38:41;99677.85;;;22.43;40.86
59939;BME280;45801;51.810;19.444;2023-07-08T07:41:07;99683.94;;;22.52;40.06
59939;BME280;45801;51.810;19.444;2023-07-08T07:43:37;99682.70;;;22.60;41.37
59939;BME280;45801;51.810;19.444;2023-07-08T07:46:03;99680.39;;;22.66;41.39
59939;BME280;45801;51.810;19.444;2023-07-08T07:48:32;99680.57;;;22.72;41.49
59939;BME280;45801;51.810;19.444;2023-07-08T07:50:58;99681.48;;;22.78;41.62
59939;BME280;45801;51.810;19.444;2023-07-08T07:53:45;99683.63;;;22.84;41.45
59939;BME280;45801;51.810;19.444;2023-07-08T07:56:11;99684.34;;;22.91;41.89
59939;BME280;45801;51.810;19.444;2023-07-08T07:58:38;99680.95;;;22.98;41.94
59939;BME280;45801;51.810;19.444;2023-07-08T08:01:04;99685.05;;;23.05;39.68
59939;BME280;45801;51.810;19.444;2023-07-08T08:03:32;99678.65;;;23.12;40.17
59939;BME280;45801;51.810;19.444;2023-07-08T08:05:59;99674.00;;;23.17;39.34
59939;BME280;45801;51.810;19.444;2023-07-08T08:08:26;99673.83;;;23.23;39.62
59939;BME280;45801;51.810;19.444;2023-07-08T08:10:52;99669.88;;;23.29;40.23
59939;BME280;45801;51.810;19.444;2023-07-08T08:13:18;99665.94;;;23.36;41.08
59939;BME280;45801;51.810;19.444;2023-07-08T08:15:45;99663.07;;;23.41;38.91
59939;BME280;45801;51.810;19.444;2023-07-08T08:18:11;99662.17;;;23.45;39.32
59939;BME280;45801;51.810;19.444;2023-07-08T08:20:38;99662.88;;;23.51;38.81
59939;BME280;45801;51.810;19.444;2023-07-08T08:23:05;99661.96;;;23.56;38.03
59939;BME280;45801;51.810;19.444;2023-07-08T08:25:32;99666.59;;;23.62;38.85
59939;BME280;45801;51.810;19.444;2023-07-08T08:27:59;99670.88;;;23.68;38.00
59939;BME280;45801;51.810;19.444;2023-07-08T08:30:25;99673.54;;;23.72;38.28
59939;BME280;45801;51.810;19.444;2023-07-08T08:32:52;99675.14;;;23.76;39.12
59939;BME280;45801;51.810;19.444;2023-07-08T08:35:24;99678.52;;;23.81;39.15
59939;BME280;45801;51.810;19.444;2023-07-08T08:37:52;99678.16;;;23.86;38.24
59939;BME280;45801;51.810;19.444;2023-07-08T08:40:20;99675.13;;;23.88;37.78
59939;BME280;45801;51.810;19.444;2023-07-08T08:43:10;99670.65;;;23.92;38.09
59939;BME280;45801;51.810;19.444;2023-07-08T08:45:59;99674.73;;;23.98;37.21
59939;BME280;45801;51.810;19.444;2023-07-08T08:48:27;99677.41;;;24.04;37.58
59939;BME280;45801;51.810;19.444;2023-07-08T08:51:03;99672.71;;;24.09;37.23
59939;BME280;45801;51.810;19.444;2023-07-08T08:53:31;99670.55;;;24.13;35.30
59939;BME280;45801;51.810;19.444;2023-07-08T08:56:22;99668.37;;;24.19;36.90
59939;BME280;45801;51.810;19.444;2023-07-08T08:59:05;99667.63;;;24.25;35.99
59939;BME280;45801;51.810;19.444;2023-07-08T09:01:35;99666.52;;;24.32;37.08
59939;BME280;45801;51.810;19.444;2023-07-08T09:04:15;99663.62;;;24.38;36.83
59939;BME280;45801;51.810;19.444;2023-07-08T09:06:44;99666.44;;;24.45;36.78
59939;BME280;45801;51.810;19.444;2023-07-08T09:09:17;99663.73;;;24.50;36.47
59939;BME280;45801;51.810;19.444;2023-07-08T09:11:58;99668.16;;;24.56;35.11
59939;BME280;45801;51.810;19.444;2023-07-08T09:14:29;99668.15;;;24.61;35.92
59939;BME280;45801;51.810;19.444;2023-07-08T09:17:29;99665.25;;;24.67;34.72
59939;BME280;45801;51.810;19.444;2023-07-08T09:20:21;99662.71;;;24.71;35.51
59939;BME280;45801;51.810;19.444;2023-07-08T09:22:59;99663.39;;;24.78;35.93
59939;BME280;45801;51.810;19.444;2023-07-08T09:25:41;99662.08;;;24.84;36.33
59939;BME280;45801;51.810;19.444;2023-07-08T09:28:12;99653.27;;;24.90;36.18
59939;BME280;45801;51.810;19.444;2023-07-08T09:30:39;99644.09;;;24.94;34.32
59939;BME280;45801;51.810;19.444;2023-07-08T09:33:08;99649.06;;;24.99;34.78
59939;BME280;45801;51.810;19.444;2023-07-08T09:35:40;99648.30;;;25.03;35.17
59939;BME280;45801;51.810;19.444;2023-07-08T09:38:25;99647.70;;;25.09;35.46
59939;BME280;45801;51.810;19.444;2023-07-08T09:40:53;99639.77;;;25.14;34.29
59939;BME280;45801;51.810;19.444;2023-07-08T09:43:30;99640.09;;;25.19;33.60
59939;BME280;45801;51.810;19.444;2023-07-08T09:46:02;99639.51;;;25.22;33.92
59939;BME280;45801;51.810;19.444;2023-07-08T09:48:34;99637.86;;;25.28;35.12
59939;BME280;45801;51.810;19.444;2023-07-08T09:51:02;99635.48;;;25.33;34.68
59939;BME280;45801;51.810;19.444;2023-07-08T09:53:29;99631.23;;;25.30;35.25
59939;BME280;45801;51.810;19.444;2023-07-08T09:55:57;99628.94;;;25.22;34.53
59939;BME280;45801;51.810;19.444;2023-07-08T09:58:30;99630.39;;;25.20;35.68
59939;BME280;45801;51.810;19.444;2023-07-08T10:01:01;99627.52;;;25.20;35.29
59939;BME280;45801;51.810;19.444;2023-07-08T10:03:33;99627.15;;;25.23;35.15
59939;BME280;45801;51.810;19.444;2023-07-08T10:06:05;99626.38;;;25.30;35.03
59939;BME280;45801;51.810;19.444;2023-07-08T10:08:41;99627.38;;;25.38;35.63
59939;BME280;45801;51.810;19.444;2023-07-08T10:13:49;99623.05;;;25.57;34.25
59939;BME280;45801;51.810;19.444;2023-07-08T10:16:30;99616.50;;;25.65;34.45
59939;BME280;45801;51.810;19.444;2023-07-08T10:18:58;99616.04;;;25.72;34.56
59939;BME280;45801;51.810;19.444;2023-07-08T10:24:36;99613.14;;;25.89;33.94
59939;BME280;45801;51.810;19.444;2023-07-08T10:39:12;99604.93;;;26.14;33.38
59939;BME280;45801;51.810;19.444;2023-07-08T10:42:06;99602.88;;;26.20;31.20
59939;BME280;45801;51.810;19.444;2023-07-08T10:45:24;99601.89;;;26.27;32.74
59939;BME280;45801;51.810;19.444;2023-07-08T10:51:18;99598.30;;;26.50;32.22
59939;BME280;45801;51.810;19.444;2023-07-08T10:56:46;99589.63;;;26.65;32.17
59939;BME280;45801;51.810;19.444;2023-07-08T10:59:42;99586.27;;;26.74;33.06
59939;BME280;45801;51.810;19.444;2023-07-08T11:08:29;99592.06;;;26.71;31.94
59939;BME280;45801;51.810;19.444;2023-07-08T11:11:00;99590.30;;;26.69;31.39
59939;BME280;45801;51.810;19.444;2023-07-08T11:13:29;99594.90;;;26.73;31.91
59939;BME280;45801;51.810;19.444;2023-07-08T11:16:15;99589.04;;;26.80;31.75
59939;BME280;45801;51.810;19.444;2023-07-08T11:18:52;99582.95;;;26.89;32.07
59939;BME280;45801;51.810;19.444;2023-07-08T11:21:26;99574.70;;;26.98;31.62
59939;BME280;45801;51.810;19.444;2023-07-08T11:27:15;99578.47;;;27.18;29.94
59939;BME280;45801;51.810;19.444;2023-07-08T11:29:48;99579.75;;;27.26;30.41
59939;BME280;45801;51.810;19.444;2023-07-08T11:32:19;99576.44;;;27.30;30.08
59939;BME280;45801;51.810;19.444;2023-07-08T11:34:50;99573.13;;;27.35;29.40
59939;BME280;45801;51.810;19.444;2023-07-08T11:37:19;99569.77;;;27.42;30.27
59939;BME280;45801;51.810;19.444;2023-07-08T11:40:07;99569.83;;;27.48;30.31
59939;BME280;45801;51.810;19.444;2023-07-08T11:42:43;99568.77;;;27.55;30.56
59939;BME280;45801;51.810;19.444;2023-07-08T11:47:48;99558.46;;;27.67;30.08
59939;BME280;45801;51.810;19.444;2023-07-08T11:50:29;99550.77;;;27.72;29.63
59939;BME280;45801;51.810;19.444;2023-07-08T11:53:06;99553.68;;;27.71;29.43
59939;BME280;45801;51.810;19.444;2023-07-08T11:55:57;99551.96;;;27.76;30.04
59939;BME280;45801;51.810;19.444;2023-07-08T11:58:30;99550.02;;;27.83;30.26
59939;BME280;45801;51.810;19.444;2023-07-08T12:01:00;99548.96;;;27.90;30.11
59939;BME280;45801;51.810;19.444;2023-07-08T12:03:31;99547.94;;;27.96;29.61
59939;BME280;45801;51.810;19.444;2023-07-08T12:06:00;99550.14;;;28.03;30.39
59939;BME280;45801;51.810;19.444;2023-07-08T12:08:34;99549.36;;;28.05;29.57
59939;BME280;45801;51.810;19.444;2023-07-08T12:11:11;99549.38;;;28.12;30.02
59939;BME280;45801;51.810;19.444;2023-07-08T12:13:39;99550.86;;;28.18;29.46
59939;BME280;45801;51.810;19.444;2023-07-08T12:16:12;99546.42;;;28.23;29.50
59939;BME280;45801;51.810;19.444;2023-07-08T12:18:39;99541.77;;;28.29;29.65
59939;BME280;45801;51.810;19.444;2023-07-08T12:21:13;99538.41;;;28.34;28.64
59939;BME280;45801;51.810;19.444;2023-07-08T12:23:45;99535.41;;;28.39;29.06
59939;BME280;45801;51.810;19.444;2023-07-08T12:26:12;99538.14;;;28.45;28.96
59939;BME280;45801;51.810;19.444;2023-07-08T12:28:39;99537.30;;;28.50;28.38
59939;BME280;45801;51.810;19.444;2023-07-08T12:31:18;99531.10;;;28.53;28.84
59939;BME280;45801;51.810;19.444;2023-07-08T12:33:46;99532.14;;;28.55;28.86
59939;BME280;45801;51.810;19.444;2023-07-08T12:36:21;99525.27;;;28.55;28.10
59939;BME280;45801;51.810;19.444;2023-07-08T12:38:49;99519.42;;;28.59;29.04
59939;BME280;45801;51.810;19.444;2023-07-08T12:41:22;99509.87;;;28.67;28.26
59939;BME280;45801;51.810;19.444;2023-07-08T12:43:50;99510.80;;;28.72;27.75
59939;BME280;45801;51.810;19.444;2023-07-08T12:46:18;99512.29;;;28.78;28.91
59939;BME280;45801;51.810;19.444;2023-07-08T12:48:45;99512.49;;;28.84;28.06
59939;BME280;45801;51.810;19.444;2023-07-08T12:51:20;99510.67;;;28.91;29.07
59939;BME280;45801;51.810;19.444;2023-07-08T12:53:51;99517.97;;;29.01;28.73
59939;BME280;45801;51.810;19.444;2023-07-08T12:56:21;99516.73;;;29.07;28.46
59939;BME280;45801;51.810;19.444;2023-07-08T12:58:50;99512.32;;;29.09;27.25
59939;BME280;45801;51.810;19.444;2023-07-08T13:01:22;99504.58;;;29.09;27.76
59939;BME280;45801;51.810;19.444;2023-07-08T13:03:53;99503.18;;;29.01;28.14
59939;BME280;45801;51.810;19.444;2023-07-08T13:06:21;99499.69;;;28.97;27.21
59939;BME280;45801;51.810;19.444;2023-07-08T13:08:50;99495.66;;;28.99;28.45
59939;BME280;45801;51.810;19.444;2023-07-08T13:11:20;99492.51;;;29.02;28.40
59939;BME280;45801;51.810;19.444;2023-07-08T13:13:51;99496.55;;;29.06;27.59
59939;BME280;45801;51.810;19.444;2023-07-08T13:16:19;99499.52;;;29.10;28.12
59939;BME280;45801;51.810;19.444;2023-07-08T13:18:47;99494.52;;;29.15;27.02
59939;BME280;45801;51.810;19.444;2023-07-08T13:21:15;99492.77;;;29.18;27.81
59939;BME280;45801;51.810;19.444;2023-07-08T13:23:43;99488.70;;;29.23;28.30
59939;BME280;45801;51.810;19.444;2023-07-08T13:26:18;99491.90;;;29.31;27.70
59939;BME280;45801;51.810;19.444;2023-07-08T13:29:11;99491.71;;;29.37;26.82
59939;BME280;45801;51.810;19.444;2023-07-08T13:31:39;99489.60;;;29.41;26.14
59939;BME280;45801;51.810;19.444;2023-07-08T13:34:09;99484.45;;;29.45;26.44
59939;BME280;45801;51.810;19.444;2023-07-08T13:36:39;99483.90;;;29.51;27.05
59939;BME280;45801;51.810;19.444;2023-07-08T13:39:09;99478.20;;;29.54;26.36
59939;BME280;45801;51.810;19.444;2023-07-08T13:41:45;99476.56;;;29.55;25.48
59939;BME280;45801;51.810;19.444;2023-07-08T13:44:12;99473.13;;;29.56;25.83